Burnside, PA (15721)

9:49 AM EDT on September 03, 2015 (GMT -0400)
NE Indiana County Pa. | | Change Station
CLOSE
Current Station
Personal Weather Station
Location: Cherry Tree, PA
Elevation: 1601 ft
Nearby Weather Stations
Active Advisory: Special Statement

Elev 1601 ft 40.78 °N, 78.81 °W | Updated 1 second ago

Mostly Cloudy
Mostly Cloudy
69.9 °F
Feels Like 69.9 °F
N
0.0
Wind Variable Wind from East
Gusts 2.0 mph

Today
High -- | Low -- °F
--% Chance of Precip.
Yesterday
High -- | Low -- °F
Precip. -- in
6:43 AM 7:44 PM
Waning Gibbous, 70% visible
Pressure 30.06 in
Visibility 6.0 miles
Clouds Mostly Cloudy 1100 ft
Overcast 3300 ft
Dew Point 68 °F
Humidity 92%
Rainfall 0.00 in
Snow Depth Not available.
UV 1 out of 12
Pollen 10.00 out of 12
Air Quality Not available.
Flu Activity Not available.
METAR KIDI 031335Z AUTO 23006KT 6SM BR BKN011 OVC033 21/20 A3006 RMK A01
Pressure 30.06 in
Visibility 6.0 miles
Clouds Mostly Cloudy 1100 ft
Overcast 3300 ft
Dew Point 68 °F
Humidity 92%
Rainfall 0.00 in
Snow Depth Not available.
UV 1 out of 12
Pollen 10.00 out of 12
Air Quality Not available.
Flu Activity Not available.
METAR KIDI 031335Z AUTO 23006KT 6SM BR BKN011 OVC033 21/20 A3006 RMK A01

10-Day Weather Forecast

×

Almanac

Astronomy

Sep. 03, 2015 Rise Set
Actual Time
Civil Twilight
Nautical Twilight
Astronomical Twilight
Moon
Length of Visible Light
Length of Day
Tomorrow will be .
, % of the Moon is Illuminated

Today's Extremes

State Highs State Lows

Community

WunderPhotos

Upload Photos

1,851,952 photos uploaded!

WunderBlogs® & News

Nearby

Air Quality

  Air Quality AQ Index Pollutant
Not available.

Snow Depth

Station Depth Elevation

Earthquake Activity

City Distance Mag. Time & Date
Minimum magnitude displayed is 2.5.

Coastal Water Temperatures

Place Temperature

Stations

Nearby Weather Stations

Station Location Temp. Windchill Dew Point Humidity Wind Precip. Elev Updated Type
                   
Special Statement
Statement as of 8:43 AM EDT on September 03, 2015

... Patchy dense valley fog this morning...

Dense fog... confined mainly to river valleys... will lift and burn
away slowly this morning. The biggest impacts will be along the
Sinnemahoning and Moshannon creeks and portions of the West Branch
Susquehanna River.

Please use caution and slow down if you encounter fog during your
morning commute.


Rxr

843 am EDT Thu Sep 3 2015

... Patchy dense valley fog this morning...

Dense fog... confined mainly to river valleys... will lift and burn
away slowly this morning. The biggest impacts will be along the
Sinnemahoning and Moshannon creeks and portions of the West Branch
Susquehanna River.

Please use caution and slow down if you encounter fog during your
morning commute.


Rxr